Cusseta, Georgia
Current Conditions -  °F | °C
As of 9:22 AM on Friday 24 Oct 2014 (Local Time) from KLSF Reporting Station
Clear Clear  
Wind Chill: 50°   Ceiling: Unl
Heat Index: 50°   Visibility: 7mi
Dew Point: 50°   Wind: 0mph
Humidity: 100%   Direction: NA
Pressure: 30.08"   Gusts: NA
Location:  32.31°N, 84.77°W
Report Text: KLSF 241322Z 00000KT 7SM R33/2600FT CLR 10/10 A3008 RMK AO2A VIS S 1/2
Loading
Personal Weather Stations






























Interactive Weather Map
Tropical Storm Tracking
New forecast layout! Learn more

10-Day Weather Forecast

Advertisements
Track Severe Weather on mobile